Time;durP1;ratioP1;P1;durP2;ratioP2;P2;SDS_P1;SDS_P2;PMS_P1;PMS_P2;Temp;Humidity;BMP_temperature;BMP_pressure;BME280_temperature;BME280_humidity;BME280_pressure;Samples;Min_cycle;Max_cycle;Signal;HPM_P1;HPM_P2
2024/01/27 07:30:15;;;;;;;19.13;3.17;;;;;;;;;;2083091;28;20573;-72
2024/01/27 07:31:17;;;;;;;8.45;3.38;;;;;;;;;;2078029;28;20225;-73
2024/01/27 07:32:18;;;;;;;8.43;3.70;;;;;;;;;;2075886;28;20193;-72
2024/01/27 07:33:20;;;;;;;6.53;3.28;;;;;;;;;;2073979;28;20203;-72
2024/01/27 07:34:21;;;;;;;10.82;2.63;;;;;;;;;;2072510;28;20199;-73
2024/01/27 07:35:23;;;;;;;5.63;2.35;;;;;;;;;;2071577;28;20590;-73
2024/01/27 07:36:26;;;;;;;4.57;2.45;;;;;;;;;;2070139;28;20787;-73
2024/01/27 07:37:27;;;;;;;9.98;2.45;;;;;;;;;;2069685;28;20656;-74
2024/01/27 07:38:29;;;;;;;9.82;3.38;;;;;;;;;;2073585;28;20197;-75
2024/01/27 07:39:30;;;;;;;6.65;2.50;;;;;;;;;;2069745;28;20201;-75
2024/01/27 07:40:31;;;;;;;16.75;3.40;;;;;;;;;;2071083;28;20197;-74
2024/01/27 07:41:33;;;;;;;4.93;1.75;;;;;;;;;;2071372;28;20249;-71
2024/01/27 07:42:34;;;;;;;5.72;2.05;;;;;;;;;;2069972;28;20192;-70
2024/01/27 07:43:36;;;;;;;7.30;2.25;;;;;;;;;;2068893;28;20220;-71
2024/01/27 07:44:37;;;;;;;9.02;2.90;;;;;;;;;;2071143;28;20259;-73
2024/01/27 07:45:38;;;;;;;9.45;2.25;;;;;;;;;;2070553;28;20284;-71
2024/01/27 07:46:40;;;;;;;6.85;2.63;;;;;;;;;;2070924;28;20225;-71
2024/01/27 07:47:42;;;;;;;7.10;2.25;;;;;;;;;;2070069;28;20185;-71
2024/01/27 07:48:43;;;;;;;10.30;2.05;;;;;;;;;;2069463;28;20198;-71
2024/01/27 07:49:45;;;;;;;11.80;2.85;;;;;;;;;;2072279;28;20245;-71
2024/01/27 07:50:48;;;;;;;24.75;2.67;;;;;;;;;;2070656;28;20255;-71
2024/01/27 07:51:50;;;;;;;16.45;2.90;;;;;;;;;;2072117;28;20228;-71
2024/01/27 07:52:51;;;;;;;9.70;2.75;;;;;;;;;;2072611;28;20804;-70
2024/01/27 07:53:52;;;;;;;5.15;2.30;;;;;;;;;;2070339;28;20193;-71
2024/01/27 07:54:54;;;;;;;9.05;2.22;;;;;;;;;;2074400;28;20197;-70
2024/01/27 07:55:56;;;;;;;11.25;2.33;;;;;;;;;;2072553;28;20201;-69
2024/01/27 07:56:58;;;;;;;10.43;2.97;;;;;;;;;;2073902;28;20203;-71
2024/01/27 07:57:59;;;;;;;7.13;3.13;;;;;;;;;;2068656;28;20198;-71
2024/01/27 07:59:00;;;;;;;6.40;3.17;;;;;;;;;;2068599;28;20420;-70
2024/01/27 08:00:03;;;;;;;12.80;3.85;;;;;;;;;;2072434;28;20908;-70
2024/01/27 08:01:04;;;;;;;8.40;4.53;;;;;;;;;;2070247;28;20330;-70
2024/01/27 08:02:06;;;;;;;11.25;5.22;;;;;;;;;;2072441;28;20205;-70
2024/01/27 08:03:07;;;;;;;12.02;4.97;;;;;;;;;;2073840;28;20202;-69
2024/01/27 08:04:09;;;;;;;15.57;4.75;;;;;;;;;;2072140;28;20203;-70
2024/01/27 08:05:11;;;;;;;7.75;4.70;;;;;;;;;;2070453;28;20238;-69
2024/01/27 08:06:19;;;;;;;13.98;5.90;;;;;;;;;;2073690;28;20235;-69
2024/01/27 08:07:20;;;;;;;11.57;5.82;;;;;;;;;;2071539;28;20200;-69
2024/01/27 08:08:22;;;;;;;17.48;6.05;;;;;;;;;;2069989;28;20208;-69
2024/01/27 08:09:24;;;;;;;14.23;5.63;;;;;;;;;;2068773;28;20198;-69
2024/01/27 08:10:26;;;;;;;12.05;6.05;;;;;;;;;;2067927;28;20253;-69
2024/01/27 08:11:27;;;;;;;12.52;5.63;;;;;;;;;;2067059;28;20218;-69
2024/01/27 08:12:32;;;;;;;11.85;5.65;;;;;;;;;;2071561;28;20767;-69
2024/01/27 08:13:33;;;;;;;12.63;5.80;;;;;;;;;;2076843;28;20683;-69
2024/01/27 08:14:35;;;;;;;11.70;5.45;;;;;;;;;;2074560;28;20196;-69
2024/01/27 08:15:37;;;;;;;11.18;5.20;;;;;;;;;;2067448;28;20205;-69
2024/01/27 08:16:38;;;;;;;13.40;5.82;;;;;;;;;;2070849;28;20221;-69
2024/01/27 08:17:39;;;;;;;11.45;5.57;;;;;;;;;;2069021;28;20198;-69
2024/01/27 08:18:43;;;;;;;13.45;5.43;;;;;;;;;;2070239;28;20677;-69
2024/01/27 08:19:45;;;;;;;11.32;5.53;;;;;;;;;;2070775;28;20284;-69
2024/01/27 08:20:46;;;;;;;9.95;5.82;;;;;;;;;;2070415;28;20814;-69
2024/01/27 08:21:48;;;;;;;10.45;5.43;;;;;;;;;;2066802;28;20217;-70
2024/01/27 08:22:51;;;;;;;11.40;5.70;;;;;;;;;;2069670;28;20198;-70
2024/01/27 08:23:52;;;;;;;10.70;5.18;;;;;;;;;;2072226;28;20203;-70
2024/01/27 08:24:54;;;;;;;9.55;3.80;;;;;;;;;;2070459;28;20211;-70
2024/01/27 08:25:55;;;;;;;5.95;3.08;;;;;;;;;;2072700;28;20198;-71
2024/01/27 08:26:58;;;;;;;7.70;3.88;;;;;;;;;;2069310;28;20217;-71
2024/01/27 08:27:59;;;;;;;8.25;3.30;;;;;;;;;;2069032;28;20285;-71
2024/01/27 08:29:00;;;;;;;10.10;3.70;;;;;;;;;;2073133;28;20197;-72
2024/01/27 08:30:02;;;;;;;6.90;2.20;;;;;;;;;;2073759;28;20305;-72
2024/01/27 08:31:04;;;;;;;7.60;2.33;;;;;;;;;;2071979;28;20251;-71
2024/01/27 08:32:06;;;;;;;7.47;2.42;;;;;;;;;;2073805;28;20244;-72
2024/01/27 08:33:08;;;;;;;11.38;2.03;;;;;;;;;;2077724;28;20549;-71
2024/01/27 08:34:12;;;;;;;4.38;1.80;;;;;;;;;;2077041;28;20218;-72
2024/01/27 08:35:14;;;;;;;8.48;1.80;;;;;;;;;;2067979;28;20208;-72
2024/01/27 08:36:16;;;;;;;5.75;2.08;;;;;;;;;;2070612;28;20209;-72
2024/01/27 08:37:18;;;;;;;5.85;1.92;;;;;;;;;;2063600;28;20285;-73
2024/01/27 08:38:20;;;;;;;11.07;2.13;;;;;;;;;;2072628;28;20202;-72
2024/01/27 08:39:21;;;;;;;8.88;2.00;;;;;;;;;;2073631;28;20766;-72
2024/01/27 08:40:22;;;;;;;7.55;2.15;;;;;;;;;;2072562;28;20198;-72
2024/01/27 08:41:26;;;;;;;4.55;1.65;;;;;;;;;;2068281;28;20252;-73
2024/01/27 08:42:30;;;;;;;6.85;2.25;;;;;;;;;;2065172;28;20290;-73
2024/01/27 08:43:32;;;;;;;6.88;2.30;;;;;;;;;;2066669;28;20836;-72
2024/01/27 08:44:33;;;;;;;20.67;6.68;;;;;;;;;;2068248;28;20217;-73
2024/01/27 08:45:35;;;;;;;42.83;25.15;;;;;;;;;;2057586;28;20258;-74
2024/01/27 08:46:36;;;;;;;20.65;9.50;;;;;;;;;;2057208;28;20310;-75
2024/01/27 08:47:37;;;;;;;6.03;2.60;;;;;;;;;;2065500;28;20249;-74
2024/01/27 08:48:41;;;;;;;7.72;3.05;;;;;;;;;;2063322;28;20575;-76
2024/01/27 08:49:43;;;;;;;7.05;3.50;;;;;;;;;;2061338;28;20218;-76
2024/01/27 08:50:44;;;;;;;7.20;3.33;;;;;;;;;;2068321;28;20297;-76
2024/01/27 08:51:46;;;;;;;8.73;3.53;;;;;;;;;;2064386;28;20697;-76
2024/01/27 08:52:48;;;;;;;13.77;4.47;;;;;;;;;;2066810;28;20213;-76
2024/01/27 08:53:49;;;;;;;12.15;3.50;;;;;;;;;;2065744;28;20260;-77
2024/01/27 08:54:57;;;;;;;11.38;3.72;;;;;;;;;;2067435;28;20195;-77
2024/01/27 08:56:00;;;;;;;10.45;3.88;;;;;;;;;;2064512;28;20202;-76
2024/01/27 08:57:02;;;;;;;8.20;4.20;;;;;;;;;;2060943;28;20768;-77
2024/01/27 08:58:03;;;;;;;13.88;7.43;;;;;;;;;;2062607;28;20646;-76
2024/01/27 08:59:05;;;;;;;18.38;7.72;;;;;;;;;;2066866;28;20234;-76
2024/01/27 09:00:07;;;;;;;16.38;7.55;;;;;;;;;;2064144;28;20673;-76
2024/01/27 09:01:09;;;;;;;13.80;6.47;;;;;;;;;;2064930;28;20287;-76
2024/01/27 09:02:11;;;;;;;11.10;6.15;;;;;;;;;;2064345;28;20203;-76
2024/01/27 09:03:14;;;;;;;6.82;3.65;;;;;;;;;;2066849;28;20640;-76
2024/01/27 09:04:15;;;;;;;8.50;3.55;;;;;;;;;;2062975;28;20195;-76
2024/01/27 09:05:17;;;;;;;11.00;3.90;;;;;;;;;;2064361;28;20195;-76
2024/01/27 09:06:18;;;;;;;11.60;6.32;;;;;;;;;;2065904;28;20845;-75
2024/01/27 09:07:20;;;;;;;15.18;7.63;;;;;;;;;;2065592;28;20201;-76
2024/01/27 09:08:22;;;;;;;15.63;5.32;;;;;;;;;;2064783;28;20691;-75
2024/01/27 09:09:23;;;;;;;11.55;4.78;;;;;;;;;;2064486;28;20211;-75
2024/01/27 09:10:25;;;;;;;6.88;3.92;;;;;;;;;;2061905;28;20202;-75
2024/01/27 09:11:29;;;;;;;8.77;4.15;;;;;;;;;;2059782;28;20218;-75
2024/01/27 09:12:31;;;;;;;19.73;6.38;;;;;;;;;;2063765;28;20213;-75
2024/01/27 09:13:33;;;;;;;15.32;8.10;;;;;;;;;;2065224;28;20306;-74
2024/01/27 09:14:34;;;;;;;14.20;7.25;;;;;;;;;;2067062;28;20201;-74
2024/01/27 09:15:36;;;;;;;16.95;8.18;;;;;;;;;;2067560;28;20205;-74
2024/01/27 09:16:38;;;;;;;16.67;7.50;;;;;;;;;;2043228;28;20223;-73
2024/01/27 09:17:42;;;;;;;22.15;8.95;;;;;;;;;;2063834;28;20229;-73
2024/01/27 09:18:43;;;;;;;13.10;6.10;;;;;;;;;;2067114;28;20783;-73
2024/01/27 09:19:45;;;;;;;17.13;7.60;;;;;;;;;;2066607;28;20200;-73
2024/01/27 09:20:47;;;;;;;10.52;6.18;;;;;;;;;;2063616;28;20203;-73
2024/01/27 09:21:49;;;;;;;16.13;6.63;;;;;;;;;;2057834;28;20380;-72
2024/01/27 09:22:50;;;;;;;13.32;6.13;;;;;;;;;;2062430;28;20280;-72
2024/01/27 09:23:52;;;;;;;12.75;5.80;;;;;;;;;;2068742;28;20209;-72
2024/01/27 09:24:54;;;;;;;10.80;6.25;;;;;;;;;;2068403;28;20696;-72
2024/01/27 09:25:57;;;;;;;9.95;3.83;;;;;;;;;;2061669;28;20210;-72
2024/01/27 09:26:58;;;;;;;14.32;5.90;;;;;;;;;;2062259;28;20678;-73
2024/01/27 09:28:03;;;;;;;11.45;4.80;;;;;;;;;;2064551;28;20543;-72
2024/01/27 09:29:04;;;;;;;13.55;4.70;;;;;;;;;;2065992;28;20215;-74
2024/01/27 09:30:06;;;;;;;17.65;5.95;;;;;;;;;;2065772;28;20268;-72
2024/01/27 09:31:09;;;;;;;12.45;5.40;;;;;;;;;;2062320;28;20218;-72
2024/01/27 09:32:11;;;;;;;8.25;4.38;;;;;;;;;;2063973;28;20199;-72
2024/01/27 09:33:13;;;;;;;10.02;4.95;;;;;;;;;;2064525;28;20233;-72
2024/01/27 09:34:14;;;;;;;11.63;4.90;;;;;;;;;;2065426;28;20652;-72
2024/01/27 09:35:16;;;;;;;10.50;4.50;;;;;;;;;;2064912;28;20250;-72
2024/01/27 09:36:18;;;;;;;11.00;4.30;;;;;;;;;;2066466;28;20194;-72
2024/01/27 09:37:19;;;;;;;11.00;4.40;;;;;;;;;;2064981;28;20198;-72
2024/01/27 09:38:26;;;;;;;9.13;4.55;;;;;;;;;;2064414;28;20233;-72
2024/01/27 09:39:29;;;;;;;13.57;3.90;;;;;;;;;;2066842;28;20229;-72
2024/01/27 09:40:31;;;;;;;12.10;5.05;;;;;;;;;;2066648;28;20197;-72
2024/01/27 09:41:34;;;;;;;11.10;4.63;;;;;;;;;;2067923;28;20283;-72
2024/01/27 09:42:39;;;;;;;10.80;4.05;;;;;;;;;;2065645;28;20199;-72
2024/01/27 09:43:44;;;;;;;26.80;9.27;;;;;;;;;;2062307;28;20596;-71
2024/01/27 09:44:47;;;;;;;15.60;7.38;;;;;;;;;;2064549;28;20666;-72
2024/01/27 09:45:49;;;;;;;14.23;7.80;;;;;;;;;;2065867;28;20661;-71
2024/01/27 09:46:53;;;;;;;9.43;5.18;;;;;;;;;;2060472;28;20708;-70
2024/01/27 09:48:02;;;;;;;8.07;4.72;;;;;;;;;;2069534;28;20197;-71
2024/01/27 09:49:04;;;;;;;11.63;4.10;;;;;;;;;;2062312;28;20735;-70
2024/01/27 09:50:05;;;;;;;9.30;3.60;;;;;;;;;;2062990;28;20325;-70
2024/01/27 09:51:08;;;;;;;13.85;3.90;;;;;;;;;;2063419;28;20241;-71
2024/01/27 09:52:09;;;;;;;9.25;3.40;;;;;;;;;;2064156;28;20671;-70
2024/01/27 09:53:11;;;;;;;8.18;2.90;;;;;;;;;;2063191;28;20196;-70
2024/01/27 09:54:13;;;;;;;10.73;4.13;;;;;;;;;;2063705;28;20194;-70
2024/01/27 09:55:18;;;;;;;12.95;3.80;;;;;;;;;;2062854;28;20198;-70
2024/01/27 09:56:21;;;;;;;10.82;3.42;;;;;;;;;;2059914;28;20707;-70
2024/01/27 09:57:22;;;;;;;13.30;3.40;;;;;;;;;;2063613;28;20198;-71
2024/01/27 09:58:27;;;;;;;8.55;3.42;;;;;;;;;;2066827;28;20658;-70
2024/01/27 09:59:29;;;;;;;9.32;2.63;;;;;;;;;;2058620;28;20678;-71
2024/01/27 10:00:30;;;;;;;6.53;2.60;;;;;;;;;;2058356;28;20282;-70
2024/01/27 10:01:33;;;;;;;9.50;3.35;;;;;;;;;;2061952;28;20620;-70
2024/01/27 10:02:34;;;;;;;9.10;3.10;;;;;;;;;;2062982;28;20203;-70
2024/01/27 10:03:38;;;;;;;13.05;4.07;;;;;;;;;;2063110;28;20277;-70
2024/01/27 10:04:40;;;;;;;10.55;3.05;;;;;;;;;;2063958;28;20191;-70
2024/01/27 10:05:42;;;;;;;9.98;3.25;;;;;;;;;;2062282;28;20201;-70
2024/01/27 10:06:44;;;;;;;7.47;2.30;;;;;;;;;;2067268;28;20750;-70
2024/01/27 10:07:45;;;;;;;10.73;2.80;;;;;;;;;;2066878;28;20692;-70
2024/01/27 10:08:53;;;;;;;10.93;3.38;;;;;;;;;;2065740;28;20202;-70
2024/01/27 10:09:55;;;;;;;13.90;3.10;;;;;;;;;;2065546;28;20198;-70
2024/01/27 10:10:56;;;;;;;12.60;2.80;;;;;;;;;;2070957;28;20675;-69
2024/01/27 10:11:59;;;;;;;11.40;3.85;;;;;;;;;;2071426;28;20255;-69
2024/01/27 10:13:02;;;;;;;8.68;2.75;;;;;;;;;;2069466;28;20201;-69
2024/01/27 10:14:04;;;;;;;9.18;2.97;;;;;;;;;;2064583;28;20858;-71
2024/01/27 10:15:05;;;;;;;7.10;2.33;;;;;;;;;;2061801;28;20226;-70
2024/01/27 10:16:08;;;;;;;9.60;2.88;;;;;;;;;;2067119;28;20558;-68
2024/01/27 10:17:10;;;;;;;19.60;10.05;;;;;;;;;;2065887;28;20198;-72
2024/01/27 10:18:15;;;;;;;77.95;42.47;;;;;;;;;;2067418;28;20202;-73
2024/01/27 10:19:17;;;;;;;9.15;3.67;;;;;;;;;;2065795;28;20708;-71
2024/01/27 10:20:19;;;;;;;7.65;2.80;;;;;;;;;;2065971;28;20201;-70
2024/01/27 10:21:23;;;;;;;13.93;3.33;;;;;;;;;;2064409;28;20311;-70
2024/01/27 10:22:26;;;;;;;12.38;2.30;;;;;;;;;;2061308;28;20207;-70
2024/01/27 10:23:27;;;;;;;14.55;3.15;;;;;;;;;;2058639;28;20195;-70
2024/01/27 10:24:29;;;;;;;8.68;2.40;;;;;;;;;;2059678;28;20198;-70
2024/01/27 10:25:30;;;;;;;11.18;2.15;;;;;;;;;;2064993;28;20726;-70
2024/01/27 10:26:32;;;;;;;8.82;3.00;;;;;;;;;;2063157;28;20226;-70
2024/01/27 10:27:34;;;;;;;8.48;3.72;;;;;;;;;;2062720;28;20833;-70
2024/01/27 10:28:35;;;;;;;11.27;3.17;;;;;;;;;;2065271;28;20280;-70
2024/01/27 10:29:37;;;;;;;14.43;2.45;;;;;;;;;;2066003;28;20237;-70
2024/01/27 10:30:38;;;;;;;9.00;2.72;;;;;;;;;;2066200;28;20285;-69
2024/01/27 10:31:40;;;;;;;11.02;2.50;;;;;;;;;;2067456;28;20229;-69
2024/01/27 10:32:41;;;;;;;14.73;2.80;;;;;;;;;;2066720;28;20199;-69
2024/01/27 10:33:59;;;;;;;9.98;2.45;;;;;;;;;;2060298;28;20774;-69
2024/01/27 10:35:10;;;;;;;15.82;2.95;;;;;;;;;;2061882;28;20202;-69
2024/01/27 10:36:12;;;;;;;9.45;2.42;;;;;;;;;;2071093;28;20194;-68
2024/01/27 10:37:14;;;;;;;8.77;2.15;;;;;;;;;;2065533;28;20232;-68
2024/01/27 10:38:15;;;;;;;9.65;2.83;;;;;;;;;;2057180;28;20202;-69
2024/01/27 10:39:20;;;;;;;8.77;2.22;;;;;;;;;;2065897;28;20230;-69
2024/01/27 10:40:26;;;;;;;13.52;2.50;;;;;;;;;;2065353;28;20252;-68
2024/01/27 10:41:28;;;;;;;5.85;2.15;;;;;;;;;;2062446;28;20218;-69
2024/01/27 10:42:30;;;;;;;7.00;2.55;;;;;;;;;;2061050;28;20206;-69
2024/01/27 10:43:32;;;;;;;14.43;3.08;;;;;;;;;;2064024;28;20201;-68
2024/01/27 10:44:39;;;;;;;14.13;2.53;;;;;;;;;;2063178;28;20380;-68
2024/01/27 10:45:41;;;;;;;12.95;2.97;;;;;;;;;;2069249;28;20233;-69
2024/01/27 10:46:44;;;;;;;5.85;2.40;;;;;;;;;;2055326;28;20236;-68
2024/01/27 10:47:46;;;;;;;6.85;2.50;;;;;;;;;;2056032;28;20702;-68
2024/01/27 10:48:50;;;;;;;17.45;3.00;;;;;;;;;;2054451;28;20290;-69
2024/01/27 10:49:51;;;;;;;16.48;3.10;;;;;;;;;;2056224;28;20912;-68
2024/01/27 10:50:53;;;;;;;8.60;2.95;;;;;;;;;;2056487;28;20563;-68
2024/01/27 10:51:58;;;;;;;9.93;2.63;;;;;;;;;;2063949;28;20237;-69
2024/01/27 10:53:01;;;;;;;13.85;2.65;;;;;;;;;;2066187;28;20600;-69
2024/01/27 10:54:03;;;;;;;7.82;2.50;;;;;;;;;;2068008;28;20721;-68
2024/01/27 10:55:07;;;;;;;11.30;3.30;;;;;;;;;;2065954;28;20209;-68
2024/01/27 10:56:09;;;;;;;12.43;3.00;;;;;;;;;;2064584;28;20264;-69
2024/01/27 10:57:11;;;;;;;9.27;2.80;;;;;;;;;;2064864;28;20805;-68
2024/01/27 10:58:14;;;;;;;11.23;3.45;;;;;;;;;;2066650;28;20199;-67
2024/01/27 10:59:17;;;;;;;7.90;2.63;;;;;;;;;;2058745;28;20217;-67
2024/01/27 11:00:18;;;;;;;10.30;3.30;;;;;;;;;;2061000;28;20207;-67
2024/01/27 11:01:22;;;;;;;10.05;2.33;;;;;;;;;;2063728;28;20205;-67
2024/01/27 11:02:24;;;;;;;9.93;2.53;;;;;;;;;;2065476;28;20229;-68
2024/01/27 11:03:27;;;;;;;6.70;2.40;;;;;;;;;;2062507;28;20717;-68
2024/01/27 11:04:28;;;;;;;16.77;3.45;;;;;;;;;;2064172;28;20279;-67
2024/01/27 11:05:31;;;;;;;12.30;2.85;;;;;;;;;;2065348;28;20198;-67
2024/01/27 11:06:34;;;;;;;10.57;2.25;;;;;;;;;;2067484;28;20218;-67
2024/01/27 11:07:37;;;;;;;8.55;2.30;;;;;;;;;;2063165;28;20197;-67
2024/01/27 11:08:39;;;;;;;7.78;2.30;;;;;;;;;;2062803;28;20653;-68
2024/01/27 11:09:45;;;;;;;11.32;3.03;;;;;;;;;;2064659;28;20304;-67
2024/01/27 11:10:46;;;;;;;13.85;3.03;;;;;;;;;;2065943;28;20738;-67
2024/01/27 11:11:48;;;;;;;12.77;2.70;;;;;;;;;;2065049;28;20356;-67
2024/01/27 11:12:50;;;;;;;9.80;2.53;;;;;;;;;;2065950;28;20203;-67
2024/01/27 11:13:52;;;;;;;7.65;2.90;;;;;;;;;;2064283;28;20656;-67
2024/01/27 11:14:53;;;;;;;10.35;2.80;;;;;;;;;;2063931;28;20259;-67
2024/01/27 11:15:55;;;;;;;12.57;2.75;;;;;;;;;;2064752;28;20800;-67
2024/01/27 11:16:57;;;;;;;6.43;2.15;;;;;;;;;;2050786;28;20225;-68
2024/01/27 11:18:04;;;;;;;13.48;2.60;;;;;;;;;;2064532;28;20190;-67
2024/01/27 11:19:06;;;;;;;9.50;2.40;;;;;;;;;;2066610;28;20851;-67
2024/01/27 11:20:09;;;;;;;8.75;2.50;;;;;;;;;;2064956;28;20194;-67
2024/01/27 11:21:15;;;;;;;7.18;2.20;;;;;;;;;;2063368;28;20730;-67
2024/01/27 11:22:25;;;;;;;6.85;2.05;;;;;;;;;;2057328;28;20295;-66
2024/01/27 11:23:33;;;;;;;11.05;2.90;;;;;;;;;;2067390;28;20237;-66
2024/01/27 11:24:35;;;;;;;11.23;3.15;;;;;;;;;;2068341;28;20599;-71
2024/01/27 11:25:36;;;;;;;10.43;2.42;;;;;;;;;;2066212;28;20197;-72
2024/01/27 11:26:38;;;;;;;8.15;4.07;;;;;;;;;;2062279;28;20279;-72
2024/01/27 11:27:40;;;;;;;16.25;5.40;;;;;;;;;;2063845;28;20202;-72
2024/01/27 11:28:41;;;;;;;11.05;2.88;;;;;;;;;;2061474;28;20564;-72
2024/01/27 11:29:48;;;;;;;6.63;2.30;;;;;;;;;;2063968;28;20244;-69
2024/01/27 11:30:50;;;;;;;17.42;2.85;;;;;;;;;;2066482;28;20202;-69
2024/01/27 11:31:51;;;;;;;11.68;2.40;;;;;;;;;;2065724;28;20238;-68
2024/01/27 11:32:53;;;;;;;10.60;2.85;;;;;;;;;;2068386;28;20285;-68
2024/01/27 11:33:54;;;;;;;10.20;3.13;;;;;;;;;;2067085;28;20190;-68
2024/01/27 11:34:57;;;;;;;12.18;3.13;;;;;;;;;;2066295;28;20192;-68
2024/01/27 11:36:02;;;;;;;12.02;3.47;;;;;;;;;;2063177;28;20260;-68
2024/01/27 11:37:10;;;;;;;9.93;2.83;;;;;;;;;;2065860;28;20255;-68
2024/01/27 11:38:13;;;;;;;12.88;3.00;;;;;;;;;;2066561;28;20513;-68
2024/01/27 11:39:29;;;;;;;10.55;3.67;;;;;;;;;;2064806;28;20666;-68
2024/01/27 11:40:32;;;;;;;10.73;2.70;;;;;;;;;;2056543;28;20228;-67
2024/01/27 11:41:33;;;;;;;13.93;3.83;;;;;;;;;;2063597;28;20603;-68
2024/01/27 11:42:35;;;;;;;6.03;2.63;;;;;;;;;;2066526;28;20860;-70
2024/01/27 11:43:36;;;;;;;10.50;2.50;;;;;;;;;;2065998;28;20597;-70
2024/01/27 11:44:38;;;;;;;11.25;3.63;;;;;;;;;;2063610;28;20906;-70
2024/01/27 11:45:39;;;;;;;13.65;3.40;;;;;;;;;;2062418;28;20231;-69
2024/01/27 11:46:41;;;;;;;16.25;3.10;;;;;;;;;;2065213;28;20234;-69
2024/01/27 11:47:42;;;;;;;14.23;3.80;;;;;;;;;;2061395;28;20195;-70
2024/01/27 11:48:44;;;;;;;11.52;2.70;;;;;;;;;;2061236;28;20204;-70
2024/01/27 11:49:56;;;;;;;6.55;2.30;;;;;;;;;;2065180;28;20207;-70
2024/01/27 11:51:05;;;;;;;8.77;2.97;;;;;;;;;;2063530;28;20736;-70
2024/01/27 11:52:07;;;;;;;11.35;3.22;;;;;;;;;;2060362;28;20267;-70
2024/01/27 11:53:09;;;;;;;10.38;3.00;;;;;;;;;;2065135;28;20639;-70
2024/01/27 11:54:11;;;;;;;9.43;2.63;;;;;;;;;;2063380;28;20242;-69
2024/01/27 11:55:18;;;;;;;6.65;2.90;;;;;;;;;;2061509;28;20223;-70
2024/01/27 11:56:21;;;;;;;13.02;3.42;;;;;;;;;;2060579;28;20285;-70
2024/01/27 11:57:23;;;;;;;8.77;2.63;;;;;;;;;;2062448;28;20197;-69
2024/01/27 11:58:24;;;;;;;12.40;2.83;;;;;;;;;;2062841;28;20332;-70
2024/01/27 11:59:25;;;;;;;11.50;2.78;;;;;;;;;;2062255;28;20238;-70
2024/01/27 12:00:27;;;;;;;14.32;2.70;;;;;;;;;;2064195;28;20204;-70
2024/01/27 12:01:28;;;;;;;6.57;2.80;;;;;;;;;;2062713;28;25092;-70
2024/01/27 12:02:30;;;;;;;13.18;3.30;;;;;;;;;;2064299;28;20212;-70
2024/01/27 12:03:33;;;;;;;11.65;3.13;;;;;;;;;;2066634;28;20204;-70
2024/01/27 12:04:34;;;;;;;14.05;2.60;;;;;;;;;;2065959;28;20254;-69
2024/01/27 12:05:36;;;;;;;6.18;2.70;;;;;;;;;;2066815;28;20625;-69
2024/01/27 12:06:38;;;;;;;13.73;3.10;;;;;;;;;;2066003;28;20312;-69
2024/01/27 12:07:40;;;;;;;7.90;2.65;;;;;;;;;;2066938;28;20725;-69
2024/01/27 12:08:46;;;;;;;9.68;2.00;;;;;;;;;;2065497;28;20707;-67
2024/01/27 12:09:50;;;;;;;6.03;2.50;;;;;;;;;;2068153;28;20250;-67
2024/01/27 12:10:52;;;;;;;10.88;2.42;;;;;;;;;;2068142;28;20209;-67
2024/01/27 12:11:53;;;;;;;19.15;4.15;;;;;;;;;;2065332;28;20223;-67
2024/01/27 12:12:55;;;;;;;15.02;3.10;;;;;;;;;;2071054;28;20588;-67
2024/01/27 12:13:56;;;;;;;12.73;3.00;;;;;;;;;;2064288;28;20203;-68
2024/01/27 12:15:00;;;;;;;11.05;2.55;;;;;;;;;;2066319;28;20190;-67
2024/01/27 12:16:02;;;;;;;6.63;2.40;;;;;;;;;;2066462;28;20199;-67
2024/01/27 12:17:03;;;;;;;17.55;4.00;;;;;;;;;;2067634;28;20255;-67
2024/01/27 12:18:05;;;;;;;17.77;3.00;;;;;;;;;;2062230;28;20759;-68
2024/01/27 12:19:09;;;;;;;14.75;3.00;;;;;;;;;;2071607;28;20202;-67
2024/01/27 12:20:16;;;;;;;10.07;2.95;;;;;;;;;;2071715;28;20847;-68
2024/01/27 12:21:20;;;;;;;10.13;2.83;;;;;;;;;;2057881;28;20319;-67
2024/01/27 12:22:31;;;;;;;8.55;2.72;;;;;;;;;;2056177;28;20333;-68
2024/01/27 12:23:32;;;;;;;6.03;2.15;;;;;;;;;;2067046;28;20262;-67
2024/01/27 12:24:33;;;;;;;14.95;3.03;;;;;;;;;;2065451;28;20250;-68
2024/01/27 12:25:35;;;;;;;11.23;2.95;;;;;;;;;;2064125;28;20283;-68
2024/01/27 12:26:39;;;;;;;9.93;3.00;;;;;;;;;;2062891;28;20235;-68
2024/01/27 12:27:40;;;;;;;9.25;3.58;;;;;;;;;;2062199;28;20202;-68
2024/01/27 12:28:45;;;;;;;7.88;2.92;;;;;;;;;;2060685;28;20693;-68
2024/01/27 12:29:48;;;;;;;11.07;3.33;;;;;;;;;;2061672;28;20261;-68
2024/01/27 12:30:51;;;;;;;7.40;2.50;;;;;;;;;;2062568;28;20311;-68
2024/01/27 12:31:53;;;;;;;13.20;2.95;;;;;;;;;;2059340;28;20425;-68
2024/01/27 12:32:55;;;;;;;11.15;2.45;;;;;;;;;;2062942;28;20292;-68
2024/01/27 12:33:58;;;;;;;15.25;3.08;;;;;;;;;;2067537;28;20607;-68
2024/01/27 12:35:04;;;;;;;6.40;2.55;;;;;;;;;;2064529;28;20730;-68
2024/01/27 12:36:07;;;;;;;8.45;2.67;;;;;;;;;;2065820;28;20551;-68
2024/01/27 12:37:10;;;;;;;11.65;3.30;;;;;;;;;;2064993;28;20374;-68
2024/01/27 12:38:12;;;;;;;9.35;3.95;;;;;;;;;;2064626;28;20585;-68
2024/01/27 12:39:13;;;;;;;11.82;2.90;;;;;;;;;;2067535;28;20283;-68
2024/01/27 12:40:19;;;;;;;13.45;2.50;;;;;;;;;;2065597;28;20227;-68
2024/01/27 12:41:25;;;;;;;12.43;3.38;;;;;;;;;;2066151;28;20377;-67
2024/01/27 12:42:27;;;;;;;10.70;3.38;;;;;;;;;;2066175;28;20199;-68
2024/01/27 12:43:28;;;;;;;13.13;2.90;;;;;;;;;;2065375;28;20205;-68
2024/01/27 12:44:30;;;;;;;8.18;2.60;;;;;;;;;;2068109;28;20256;-68
2024/01/27 12:45:33;;;;;;;6.70;2.95;;;;;;;;;;2061890;28;20199;-68
2024/01/27 12:46:34;;;;;;;7.25;2.63;;;;;;;;;;2060764;28;20225;-68
2024/01/27 12:47:36;;;;;;;7.07;2.70;;;;;;;;;;2065770;28;20202;-68
2024/01/27 12:48:38;;;;;;;9.02;3.63;;;;;;;;;;2063879;28;20211;-68
2024/01/27 12:49:43;;;;;;;15.80;2.72;;;;;;;;;;2066805;28;20585;-70
2024/01/27 12:50:45;;;;;;;14.23;3.10;;;;;;;;;;2063832;28;20708;-69
2024/01/27 12:51:47;;;;;;;7.72;2.42;;;;;;;;;;2065031;28;20231;-68
2024/01/27 12:52:49;;;;;;;11.48;2.83;;;;;;;;;;2069036;28;20832;-68
2024/01/27 12:53:50;;;;;;;10.80;2.72;;;;;;;;;;2068568;28;20196;-68
2024/01/27 12:54:51;;;;;;;6.40;2.60;;;;;;;;;;2068498;28;20233;-68
2024/01/27 12:55:53;;;;;;;8.95;2.90;;;;;;;;;;2067642;28;20203;-68
2024/01/27 12:56:54;;;;;;;15.98;2.60;;;;;;;;;;2062964;28;20224;-68
2024/01/27 12:57:57;;;;;;;6.57;2.33;;;;;;;;;;2065764;28;20205;-68
2024/01/27 12:58:58;;;;;;;10.35;3.22;;;;;;;;;;2069663;28;20835;-68
2024/01/27 13:00:00;;;;;;;9.55;3.20;;;;;;;;;;2066528;28;20277;-68
2024/01/27 13:01:02;;;;;;;8.80;3.50;;;;;;;;;;2063440;28;20253;-68
2024/01/27 13:02:03;;;;;;;12.77;2.80;;;;;;;;;;2058807;28;20305;-68
2024/01/27 13:03:05;;;;;;;16.55;3.20;;;;;;;;;;2066861;28;20216;-68
2024/01/27 13:04:06;;;;;;;12.27;2.72;;;;;;;;;;2065685;28;20198;-68
2024/01/27 13:05:07;;;;;;;10.25;3.00;;;;;;;;;;2061387;28;20209;-68
2024/01/27 13:06:10;;;;;;;11.82;3.33;;;;;;;;;;2066390;28;20618;-68
2024/01/27 13:07:13;;;;;;;7.82;3.03;;;;;;;;;;2060884;28;20222;-68
2024/01/27 13:08:14;;;;;;;15.60;3.65;;;;;;;;;;2064167;28;20196;-68
2024/01/27 13:09:15;;;;;;;11.18;3.15;;;;;;;;;;2067090;28;20202;-68
2024/01/27 13:10:17;;;;;;;10.35;3.58;;;;;;;;;;2076482;28;20224;-68
2024/01/27 13:11:19;;;;;;;9.45;2.63;;;;;;;;;;2073869;28;20211;-68
2024/01/27 13:12:21;;;;;;;7.57;2.92;;;;;;;;;;2062618;28;20196;-68
2024/01/27 13:13:22;;;;;;;15.43;3.17;;;;;;;;;;2064927;28;20222;-68
2024/01/27 13:14:23;;;;;;;7.00;2.78;;;;;;;;;;2065647;28;20196;-68
2024/01/27 13:15:26;;;;;;;9.73;2.83;;;;;;;;;;2065353;28;20199;-68
2024/01/27 13:16:27;;;;;;;12.43;3.22;;;;;;;;;;2067857;28;20199;-68
2024/01/27 13:17:28;;;;;;;13.63;3.65;;;;;;;;;;2066044;28;20203;-68
2024/01/27 13:18:30;;;;;;;10.85;2.90;;;;;;;;;;2063803;28;20570;-68
2024/01/27 13:19:31;;;;;;;13.85;3.42;;;;;;;;;;2063760;28;20277;-68
2024/01/27 13:20:33;;;;;;;8.20;3.13;;;;;;;;;;2065194;28;20764;-68
2024/01/27 13:21:34;;;;;;;7.95;2.70;;;;;;;;;;2063559;28;20213;-68
2024/01/27 13:22:36;;;;;;;10.27;3.55;;;;;;;;;;2065957;28;20884;-68
2024/01/27 13:23:37;;;;;;;8.20;3.17;;;;;;;;;;2063297;28;20194;-68
2024/01/27 13:24:39;;;;;;;10.45;3.30;;;;;;;;;;2060918;28;20197;-68
2024/01/27 13:25:40;;;;;;;7.13;2.47;;;;;;;;;;2062998;28;20646;-68
2024/01/27 13:26:47;;;;;;;12.18;3.17;;;;;;;;;;2065871;28;20507;-68
2024/01/27 13:27:48;;;;;;;12.60;2.75;;;;;;;;;;2066707;28;20195;-68
2024/01/27 13:28:50;;;;;;;9.18;3.10;;;;;;;;;;2063348;28;20200;-68
2024/01/27 13:29:51;;;;;;;22.40;3.33;;;;;;;;;;2059494;28;20230;-68
2024/01/27 13:30:53;;;;;;;11.13;3.10;;;;;;;;;;2058315;28;20196;-68
2024/01/27 13:31:54;;;;;;;11.88;3.15;;;;;;;;;;2063542;28;20273;-68
2024/01/27 13:32:56;;;;;;;10.82;2.60;;;;;;;;;;2067391;28;20767;-68
2024/01/27 13:33:58;;;;;;;14.90;2.80;;;;;;;;;;2067821;28;20202;-68
2024/01/27 13:34:59;;;;;;;6.55;2.45;;;;;;;;;;2065079;28;20195;-68
2024/01/27 13:36:01;;;;;;;9.93;2.10;;;;;;;;;;2065709;28;20202;-68
2024/01/27 13:37:04;;;;;;;14.60;3.40;;;;;;;;;;2065771;28;20224;-68
2024/01/27 13:38:05;;;;;;;6.82;2.42;;;;;;;;;;2067349;28;20252;-67
2024/01/27 13:39:07;;;;;;;11.93;2.70;;;;;;;;;;2066855;28;20195;-69
2024/01/27 13:40:11;;;;;;;7.28;2.72;;;;;;;;;;2065901;28;20651;-69
2024/01/27 13:41:13;;;;;;;13.23;3.28;;;;;;;;;;2071831;28;20245;-69